sensor_id;sensor_type;location;lat;lon;timestamp;P1;durP1;ratioP1;P2;durP2;ratioP2
56537;SDS011;42435;53.292;6.000;2023-03-16T00:00:30;4.97;;;2.83;;
56537;SDS011;42435;53.292;6.000;2023-03-16T00:02:56;4.55;;;2.97;;
56537;SDS011;42435;53.292;6.000;2023-03-16T00:05:22;4.38;;;3.30;;
56537;SDS011;42435;53.292;6.000;2023-03-16T00:07:50;5.18;;;3.35;;
56537;SDS011;42435;53.292;6.000;2023-03-16T00:10:15;5.65;;;3.08;;
56537;SDS011;42435;53.292;6.000;2023-03-16T00:12:41;9.05;;;3.30;;
56537;SDS011;42435;53.292;6.000;2023-03-16T00:15:07;5.47;;;3.13;;
56537;SDS011;42435;53.292;6.000;2023-03-16T00:17:33;6.95;;;3.10;;
56537;SDS011;42435;53.292;6.000;2023-03-16T00:19:59;5.82;;;3.40;;
56537;SDS011;42435;53.292;6.000;2023-03-16T00:22:31;7.65;;;3.40;;
56537;SDS011;42435;53.292;6.000;2023-03-16T00:24:56;6.70;;;2.80;;
56537;SDS011;42435;53.292;6.000;2023-03-16T00:27:23;5.93;;;3.50;;
56537;SDS011;42435;53.292;6.000;2023-03-16T00:29:51;4.72;;;3.00;;
56537;SDS011;42435;53.292;6.000;2023-03-16T00:32:22;9.40;;;3.95;;
56537;SDS011;42435;53.292;6.000;2023-03-16T00:34:50;5.50;;;3.10;;
56537;SDS011;42435;53.292;6.000;2023-03-16T00:37:17;7.13;;;3.25;;
56537;SDS011;42435;53.292;6.000;2023-03-16T00:39:44;7.43;;;3.30;;
56537;SDS011;42435;53.292;6.000;2023-03-16T00:42:11;5.75;;;2.90;;
56537;SDS011;42435;53.292;6.000;2023-03-16T00:44:39;8.60;;;3.65;;
56537;SDS011;42435;53.292;6.000;2023-03-16T00:47:08;9.13;;;3.55;;
56537;SDS011;42435;53.292;6.000;2023-03-16T00:49:38;4.47;;;3.17;;
56537;SDS011;42435;53.292;6.000;2023-03-16T00:52:05;7.65;;;3.67;;
56537;SDS011;42435;53.292;6.000;2023-03-16T00:54:31;6.95;;;3.30;;
56537;SDS011;42435;53.292;6.000;2023-03-16T00:56:58;6.15;;;3.00;;
56537;SDS011;42435;53.292;6.000;2023-03-16T00:59:24;5.05;;;3.47;;
56537;SDS011;42435;53.292;6.000;2023-03-16T01:01:53;5.50;;;3.67;;
56537;SDS011;42435;53.292;6.000;2023-03-16T01:04:19;5.63;;;3.47;;
56537;SDS011;42435;53.292;6.000;2023-03-16T01:06:45;6.43;;;3.40;;
56537;SDS011;42435;53.292;6.000;2023-03-16T01:09:11;8.57;;;3.63;;
56537;SDS011;42435;53.292;6.000;2023-03-16T01:11:39;7.22;;;3.75;;
56537;SDS011;42435;53.292;6.000;2023-03-16T01:14:07;5.85;;;3.35;;
56537;SDS011;42435;53.292;6.000;2023-03-16T01:16:34;8.20;;;3.67;;
56537;SDS011;42435;53.292;6.000;2023-03-16T01:19:00;6.47;;;3.17;;
56537;SDS011;42435;53.292;6.000;2023-03-16T01:21:26;6.05;;;3.60;;
56537;SDS011;42435;53.292;6.000;2023-03-16T01:23:52;5.90;;;3.50;;
56537;SDS011;42435;53.292;6.000;2023-03-16T01:26:18;6.00;;;4.30;;
56537;SDS011;42435;53.292;6.000;2023-03-16T01:28:44;6.82;;;4.40;;
56537;SDS011;42435;53.292;6.000;2023-03-16T01:31:11;7.40;;;4.13;;
56537;SDS011;42435;53.292;6.000;2023-03-16T01:33:38;6.60;;;3.65;;
56537;SDS011;42435;53.292;6.000;2023-03-16T01:36:12;6.82;;;4.00;;
56537;SDS011;42435;53.292;6.000;2023-03-16T01:38:39;6.00;;;3.78;;
56537;SDS011;42435;53.292;6.000;2023-03-16T01:41:05;5.75;;;3.72;;
56537;SDS011;42435;53.292;6.000;2023-03-16T01:43:32;5.57;;;3.97;;
56537;SDS011;42435;53.292;6.000;2023-03-16T01:51:34;5.97;;;4.20;;
56537;SDS011;42435;53.292;6.000;2023-03-16T01:54:02;5.55;;;3.78;;
56537;SDS011;42435;53.292;6.000;2023-03-16T01:56:30;6.57;;;4.45;;
56537;SDS011;42435;53.292;6.000;2023-03-16T01:59:04;8.30;;;3.78;;
56537;SDS011;42435;53.292;6.000;2023-03-16T02:01:34;5.03;;;3.80;;
56537;SDS011;42435;53.292;6.000;2023-03-16T02:04:12;6.20;;;4.18;;
56537;SDS011;42435;53.292;6.000;2023-03-16T02:06:48;5.85;;;4.18;;
56537;SDS011;42435;53.292;6.000;2023-03-16T02:09:14;7.07;;;4.25;;
56537;SDS011;42435;53.292;6.000;2023-03-16T02:11:42;6.32;;;4.03;;
56537;SDS011;42435;53.292;6.000;2023-03-16T02:14:09;5.28;;;4.15;;
56537;SDS011;42435;53.292;6.000;2023-03-16T02:16:36;7.07;;;3.90;;
56537;SDS011;42435;53.292;6.000;2023-03-16T02:19:03;5.43;;;3.67;;
56537;SDS011;42435;53.292;6.000;2023-03-16T02:24:28;10.68;;;4.50;;
56537;SDS011;42435;53.292;6.000;2023-03-16T02:26:56;7.63;;;3.95;;
56537;SDS011;42435;53.292;6.000;2023-03-16T02:29:28;6.22;;;4.32;;
56537;SDS011;42435;53.292;6.000;2023-03-16T02:32:09;5.03;;;3.75;;
56537;SDS011;42435;53.292;6.000;2023-03-16T02:34:35;6.22;;;3.65;;
56537;SDS011;42435;53.292;6.000;2023-03-16T02:37:02;4.90;;;3.53;;
56537;SDS011;42435;53.292;6.000;2023-03-16T02:39:28;5.07;;;3.78;;
56537;SDS011;42435;53.292;6.000;2023-03-16T02:41:53;6.22;;;4.05;;
56537;SDS011;42435;53.292;6.000;2023-03-16T02:44:20;6.80;;;4.18;;
56537;SDS011;42435;53.292;6.000;2023-03-16T02:46:50;6.18;;;4.00;;
56537;SDS011;42435;53.292;6.000;2023-03-16T02:49:21;7.50;;;4.20;;
56537;SDS011;42435;53.292;6.000;2023-03-16T02:51:50;6.30;;;3.90;;
56537;SDS011;42435;53.292;6.000;2023-03-16T02:54:16;7.13;;;4.15;;
56537;SDS011;42435;53.292;6.000;2023-03-16T02:56:42;6.40;;;3.95;;
56537;SDS011;42435;53.292;6.000;2023-03-16T02:59:07;5.20;;;3.78;;
56537;SDS011;42435;53.292;6.000;2023-03-16T03:01:33;4.38;;;3.50;;
56537;SDS011;42435;53.292;6.000;2023-03-16T03:04:00;11.13;;;4.45;;
56537;SDS011;42435;53.292;6.000;2023-03-16T03:06:27;6.63;;;3.90;;
56537;SDS011;42435;53.292;6.000;2023-03-16T03:08:52;8.05;;;4.45;;
56537;SDS011;42435;53.292;6.000;2023-03-16T03:11:18;8.15;;;4.20;;
56537;SDS011;42435;53.292;6.000;2023-03-16T03:14:02;6.93;;;4.30;;
56537;SDS011;42435;53.292;6.000;2023-03-16T03:16:28;6.55;;;4.25;;
56537;SDS011;42435;53.292;6.000;2023-03-16T03:18:54;9.55;;;4.10;;
56537;SDS011;42435;53.292;6.000;2023-03-16T03:21:20;6.95;;;4.10;;
56537;SDS011;42435;53.292;6.000;2023-03-16T03:23:46;5.15;;;4.40;;
56537;SDS011;42435;53.292;6.000;2023-03-16T03:26:12;6.05;;;4.45;;
56537;SDS011;42435;53.292;6.000;2023-03-16T03:28:39;9.02;;;4.95;;
56537;SDS011;42435;53.292;6.000;2023-03-16T03:31:05;5.15;;;4.32;;
56537;SDS011;42435;53.292;6.000;2023-03-16T03:33:34;11.40;;;4.30;;
56537;SDS011;42435;53.292;6.000;2023-03-16T03:36:00;9.40;;;4.70;;
56537;SDS011;42435;53.292;6.000;2023-03-16T03:38:26;5.85;;;4.47;;
56537;SDS011;42435;53.292;6.000;2023-03-16T03:40:52;7.07;;;4.40;;
56537;SDS011;42435;53.292;6.000;2023-03-16T03:43:19;7.50;;;5.07;;
56537;SDS011;42435;53.292;6.000;2023-03-16T03:45:45;7.03;;;4.47;;
56537;SDS011;42435;53.292;6.000;2023-03-16T03:48:10;5.13;;;4.22;;
56537;SDS011;42435;53.292;6.000;2023-03-16T03:50:36;9.13;;;4.28;;
56537;SDS011;42435;53.292;6.000;2023-03-16T03:53:03;9.68;;;5.65;;
56537;SDS011;42435;53.292;6.000;2023-03-16T03:55:29;7.20;;;4.90;;
56537;SDS011;42435;53.292;6.000;2023-03-16T03:57:55;7.80;;;4.95;;
56537;SDS011;42435;53.292;6.000;2023-03-16T04:00:20;7.30;;;4.97;;
56537;SDS011;42435;53.292;6.000;2023-03-16T04:02:47;5.68;;;4.82;;
56537;SDS011;42435;53.292;6.000;2023-03-16T04:05:12;5.80;;;4.80;;
56537;SDS011;42435;53.292;6.000;2023-03-16T04:07:38;5.97;;;4.72;;
56537;SDS011;42435;53.292;6.000;2023-03-16T04:10:04;8.32;;;5.22;;
56537;SDS011;42435;53.292;6.000;2023-03-16T04:12:30;7.20;;;5.00;;
56537;SDS011;42435;53.292;6.000;2023-03-16T04:14:56;5.85;;;4.25;;
56537;SDS011;42435;53.292;6.000;2023-03-16T04:17:22;9.10;;;4.68;;
56537;SDS011;42435;53.292;6.000;2023-03-16T04:19:47;6.30;;;4.80;;
56537;SDS011;42435;53.292;6.000;2023-03-16T04:22:13;7.97;;;5.47;;
56537;SDS011;42435;53.292;6.000;2023-03-16T04:24:40;5.88;;;4.72;;
56537;SDS011;42435;53.292;6.000;2023-03-16T04:27:07;6.00;;;4.63;;
56537;SDS011;42435;53.292;6.000;2023-03-16T04:29:35;7.60;;;4.95;;
56537;SDS011;42435;53.292;6.000;2023-03-16T04:32:00;7.75;;;4.95;;
56537;SDS011;42435;53.292;6.000;2023-03-16T04:34:26;7.63;;;5.10;;
56537;SDS011;42435;53.292;6.000;2023-03-16T04:36:52;9.82;;;5.00;;
56537;SDS011;42435;53.292;6.000;2023-03-16T04:39:19;7.65;;;5.20;;
56537;SDS011;42435;53.292;6.000;2023-03-16T04:41:45;10.07;;;4.90;;
56537;SDS011;42435;53.292;6.000;2023-03-16T04:44:11;7.90;;;4.82;;
56537;SDS011;42435;53.292;6.000;2023-03-16T04:46:36;8.93;;;5.78;;
56537;SDS011;42435;53.292;6.000;2023-03-16T04:49:02;9.55;;;4.93;;
56537;SDS011;42435;53.292;6.000;2023-03-16T04:51:28;9.00;;;6.10;;
56537;SDS011;42435;53.292;6.000;2023-03-16T04:53:54;8.65;;;5.95;;
56537;SDS011;42435;53.292;6.000;2023-03-16T04:56:20;9.13;;;5.40;;
56537;SDS011;42435;53.292;6.000;2023-03-16T04:58:47;8.93;;;5.88;;
56537;SDS011;42435;53.292;6.000;2023-03-16T05:01:15;9.00;;;6.05;;
56537;SDS011;42435;53.292;6.000;2023-03-16T05:03:42;9.88;;;5.63;;
56537;SDS011;42435;53.292;6.000;2023-03-16T05:06:08;10.10;;;5.35;;
56537;SDS011;42435;53.292;6.000;2023-03-16T05:08:35;7.68;;;5.38;;
56537;SDS011;42435;53.292;6.000;2023-03-16T05:11:01;8.25;;;5.55;;
56537;SDS011;42435;53.292;6.000;2023-03-16T05:13:27;8.75;;;6.40;;
56537;SDS011;42435;53.292;6.000;2023-03-16T05:15:53;8.80;;;6.43;;
56537;SDS011;42435;53.292;6.000;2023-03-16T05:18:19;10.85;;;6.72;;
56537;SDS011;42435;53.292;6.000;2023-03-16T05:20:48;11.85;;;6.45;;
56537;SDS011;42435;53.292;6.000;2023-03-16T05:23:15;10.25;;;6.43;;
56537;SDS011;42435;53.292;6.000;2023-03-16T05:25:41;11.32;;;6.85;;
56537;SDS011;42435;53.292;6.000;2023-03-16T05:28:06;9.57;;;6.50;;
56537;SDS011;42435;53.292;6.000;2023-03-16T05:30:32;12.38;;;7.07;;
56537;SDS011;42435;53.292;6.000;2023-03-16T05:32:58;8.55;;;6.43;;
56537;SDS011;42435;53.292;6.000;2023-03-16T05:35:24;11.18;;;7.40;;
56537;SDS011;42435;53.292;6.000;2023-03-16T05:37:49;10.27;;;7.13;;
56537;SDS011;42435;53.292;6.000;2023-03-16T05:40:15;8.85;;;6.93;;
56537;SDS011;42435;53.292;6.000;2023-03-16T05:42:42;11.32;;;6.82;;
56537;SDS011;42435;53.292;6.000;2023-03-16T05:45:11;11.95;;;7.55;;
56537;SDS011;42435;53.292;6.000;2023-03-16T05:47:38;11.82;;;7.75;;
56537;SDS011;42435;53.292;6.000;2023-03-16T05:50:05;11.57;;;7.68;;
56537;SDS011;42435;53.292;6.000;2023-03-16T05:52:34;18.05;;;9.52;;
56537;SDS011;42435;53.292;6.000;2023-03-16T05:54:59;14.75;;;8.25;;
56537;SDS011;42435;53.292;6.000;2023-03-16T05:57:25;14.90;;;8.90;;
56537;SDS011;42435;53.292;6.000;2023-03-16T05:59:51;13.38;;;8.07;;
56537;SDS011;42435;53.292;6.000;2023-03-16T06:02:17;11.32;;;7.00;;
56537;SDS011;42435;53.292;6.000;2023-03-16T06:04:42;12.90;;;8.27;;
56537;SDS011;42435;53.292;6.000;2023-03-16T06:07:08;12.18;;;7.47;;
56537;SDS011;42435;53.292;6.000;2023-03-16T06:09:34;11.35;;;7.90;;
56537;SDS011;42435;53.292;6.000;2023-03-16T06:12:00;11.63;;;7.00;;
56537;SDS011;42435;53.292;6.000;2023-03-16T06:14:26;11.88;;;8.07;;
56537;SDS011;42435;53.292;6.000;2023-03-16T06:16:52;11.60;;;7.65;;
56537;SDS011;42435;53.292;6.000;2023-03-16T06:19:17;15.25;;;8.70;;
56537;SDS011;42435;53.292;6.000;2023-03-16T06:21:43;11.75;;;8.02;;
56537;SDS011;42435;53.292;6.000;2023-03-16T06:24:08;10.93;;;8.65;;
56537;SDS011;42435;53.292;6.000;2023-03-16T06:26:34;13.60;;;7.95;;
56537;SDS011;42435;53.292;6.000;2023-03-16T06:29:00;12.93;;;8.25;;
56537;SDS011;42435;53.292;6.000;2023-03-16T06:31:26;11.82;;;8.02;;
56537;SDS011;42435;53.292;6.000;2023-03-16T06:33:51;10.65;;;8.20;;
56537;SDS011;42435;53.292;6.000;2023-03-16T06:36:17;16.85;;;8.23;;
56537;SDS011;42435;53.292;6.000;2023-03-16T06:38:43;11.38;;;8.45;;
56537;SDS011;42435;53.292;6.000;2023-03-16T06:41:09;11.98;;;8.75;;
56537;SDS011;42435;53.292;6.000;2023-03-16T06:43:34;11.57;;;7.97;;
56537;SDS011;42435;53.292;6.000;2023-03-16T06:46:00;11.60;;;8.60;;
56537;SDS011;42435;53.292;6.000;2023-03-16T06:48:27;14.98;;;8.80;;
56537;SDS011;42435;53.292;6.000;2023-03-16T06:50:53;12.25;;;7.78;;
56537;SDS011;42435;53.292;6.000;2023-03-16T06:53:25;15.88;;;8.63;;
56537;SDS011;42435;53.292;6.000;2023-03-16T06:55:51;15.10;;;8.25;;
56537;SDS011;42435;53.292;6.000;2023-03-16T06:58:17;11.40;;;8.25;;
56537;SDS011;42435;53.292;6.000;2023-03-16T07:00:42;12.55;;;7.97;;
56537;SDS011;42435;53.292;6.000;2023-03-16T07:03:08;15.80;;;8.88;;
56537;SDS011;42435;53.292;6.000;2023-03-16T07:05:41;13.45;;;9.00;;
56537;SDS011;42435;53.292;6.000;2023-03-16T07:08:06;10.90;;;7.65;;
56537;SDS011;42435;53.292;6.000;2023-03-16T07:10:33;12.15;;;7.85;;
56537;SDS011;42435;53.292;6.000;2023-03-16T07:12:59;13.90;;;9.40;;
56537;SDS011;42435;53.292;6.000;2023-03-16T07:15:24;11.07;;;7.32;;
56537;SDS011;42435;53.292;6.000;2023-03-16T07:17:51;10.63;;;7.35;;
56537;SDS011;42435;53.292;6.000;2023-03-16T07:20:17;14.68;;;8.38;;
56537;SDS011;42435;53.292;6.000;2023-03-16T07:22:43;10.77;;;7.78;;
56537;SDS011;42435;53.292;6.000;2023-03-16T07:25:09;10.65;;;7.43;;
56537;SDS011;42435;53.292;6.000;2023-03-16T07:27:36;11.07;;;7.20;;
56537;SDS011;42435;53.292;6.000;2023-03-16T07:30:03;10.73;;;7.10;;
56537;SDS011;42435;53.292;6.000;2023-03-16T07:32:29;9.77;;;7.30;;
56537;SDS011;42435;53.292;6.000;2023-03-16T07:34:56;9.55;;;6.78;;
56537;SDS011;42435;53.292;6.000;2023-03-16T07:37:23;11.68;;;7.03;;
56537;SDS011;42435;53.292;6.000;2023-03-16T07:39:49;12.25;;;7.05;;
56537;SDS011;42435;53.292;6.000;2023-03-16T07:42:15;10.77;;;6.90;;
56537;SDS011;42435;53.292;6.000;2023-03-16T07:44:41;10.60;;;7.55;;
56537;SDS011;42435;53.292;6.000;2023-03-16T07:47:07;12.25;;;6.93;;
56537;SDS011;42435;53.292;6.000;2023-03-16T07:49:36;11.63;;;7.65;;
56537;SDS011;42435;53.292;6.000;2023-03-16T07:52:02;10.50;;;7.07;;
56537;SDS011;42435;53.292;6.000;2023-03-16T07:54:28;12.82;;;7.60;;
56537;SDS011;42435;53.292;6.000;2023-03-16T07:56:53;10.95;;;6.82;;
56537;SDS011;42435;53.292;6.000;2023-03-16T07:59:19;10.65;;;6.75;;
56537;SDS011;42435;53.292;6.000;2023-03-16T08:01:45;10.63;;;7.03;;
56537;SDS011;42435;53.292;6.000;2023-03-16T08:04:11;11.80;;;6.90;;
56537;SDS011;42435;53.292;6.000;2023-03-16T08:06:36;9.93;;;6.53;;
56537;SDS011;42435;53.292;6.000;2023-03-16T08:09:02;11.48;;;6.18;;
56537;SDS011;42435;53.292;6.000;2023-03-16T08:11:28;9.93;;;6.68;;
56537;SDS011;42435;53.292;6.000;2023-03-16T08:13:53;10.02;;;6.70;;
56537;SDS011;42435;53.292;6.000;2023-03-16T08:16:21;12.48;;;6.22;;
56537;SDS011;42435;53.292;6.000;2023-03-16T08:18:48;10.00;;;6.28;;
56537;SDS011;42435;53.292;6.000;2023-03-16T08:21:14;10.75;;;6.97;;
56537;SDS011;42435;53.292;6.000;2023-03-16T08:23:41;10.15;;;6.45;;
56537;SDS011;42435;53.292;6.000;2023-03-16T08:26:13;13.40;;;7.03;;
56537;SDS011;42435;53.292;6.000;2023-03-16T08:28:41;12.20;;;6.90;;
56537;SDS011;42435;53.292;6.000;2023-03-16T08:31:09;11.05;;;6.32;;
56537;SDS011;42435;53.292;6.000;2023-03-16T08:33:36;10.73;;;6.68;;
56537;SDS011;42435;53.292;6.000;2023-03-16T08:36:04;11.65;;;6.55;;
56537;SDS011;42435;53.292;6.000;2023-03-16T08:38:31;11.20;;;6.60;;
56537;SDS011;42435;53.292;6.000;2023-03-16T08:40:57;11.60;;;6.32;;
56537;SDS011;42435;53.292;6.000;2023-03-16T08:43:24;8.70;;;6.43;;
56537;SDS011;42435;53.292;6.000;2023-03-16T08:45:51;9.65;;;6.82;;
56537;SDS011;42435;53.292;6.000;2023-03-16T08:48:18;10.57;;;7.07;;
56537;SDS011;42435;53.292;6.000;2023-03-16T08:50:44;10.10;;;6.28;;
56537;SDS011;42435;53.292;6.000;2023-03-16T08:53:10;11.60;;;6.53;;
56537;SDS011;42435;53.292;6.000;2023-03-16T08:55:37;12.30;;;6.95;;
56537;SDS011;42435;53.292;6.000;2023-03-16T08:58:05;10.32;;;6.40;;
56537;SDS011;42435;53.292;6.000;2023-03-16T09:00:32;10.75;;;6.22;;
56537;SDS011;42435;53.292;6.000;2023-03-16T09:02:57;8.98;;;6.03;;
56537;SDS011;42435;53.292;6.000;2023-03-16T09:05:25;12.88;;;6.60;;
56537;SDS011;42435;53.292;6.000;2023-03-16T09:07:51;9.07;;;6.15;;
56537;SDS011;42435;53.292;6.000;2023-03-16T09:10:18;11.48;;;6.65;;
56537;SDS011;42435;53.292;6.000;2023-03-16T09:12:47;13.70;;;6.90;;
56537;SDS011;42435;53.292;6.000;2023-03-16T09:15:13;9.60;;;6.32;;
56537;SDS011;42435;53.292;6.000;2023-03-16T09:17:39;9.43;;;5.50;;
56537;SDS011;42435;53.292;6.000;2023-03-16T09:20:06;11.18;;;6.10;;
56537;SDS011;42435;53.292;6.000;2023-03-16T09:22:34;11.95;;;7.82;;
56537;SDS011;42435;53.292;6.000;2023-03-16T09:25:01;9.13;;;6.22;;
56537;SDS011;42435;53.292;6.000;2023-03-16T09:27:31;13.40;;;7.40;;
56537;SDS011;42435;53.292;6.000;2023-03-16T09:29:57;9.30;;;6.45;;
56537;SDS011;42435;53.292;6.000;2023-03-16T09:32:25;10.45;;;5.75;;
56537;SDS011;42435;53.292;6.000;2023-03-16T09:34:52;10.02;;;6.22;;
56537;SDS011;42435;53.292;6.000;2023-03-16T09:37:20;11.25;;;5.65;;
56537;SDS011;42435;53.292;6.000;2023-03-16T09:39:46;11.77;;;6.97;;
56537;SDS011;42435;53.292;6.000;2023-03-16T09:42:14;7.25;;;5.32;;
56537;SDS011;42435;53.292;6.000;2023-03-16T09:44:47;11.85;;;6.80;;
56537;SDS011;42435;53.292;6.000;2023-03-16T09:47:36;10.23;;;6.53;;
56537;SDS011;42435;53.292;6.000;2023-03-16T09:50:04;9.27;;;5.65;;
56537;SDS011;42435;53.292;6.000;2023-03-16T09:52:39;10.00;;;5.55;;
56537;SDS011;42435;53.292;6.000;2023-03-16T09:55:30;9.02;;;6.00;;
56537;SDS011;42435;53.292;6.000;2023-03-16T09:58:03;10.25;;;5.10;;
56537;SDS011;42435;53.292;6.000;2023-03-16T10:00:44;9.93;;;6.18;;
56537;SDS011;42435;53.292;6.000;2023-03-16T10:05:53;8.43;;;5.03;;
56537;SDS011;42435;53.292;6.000;2023-03-16T10:08:24;8.60;;;5.32;;
56537;SDS011;42435;53.292;6.000;2023-03-16T10:11:03;8.88;;;4.90;;
56537;SDS011;42435;53.292;6.000;2023-03-16T10:16:31;9.32;;;5.70;;
56537;SDS011;42435;53.292;6.000;2023-03-16T10:19:24;9.88;;;5.13;;
56537;SDS011;42435;53.292;6.000;2023-03-16T10:21:59;8.60;;;5.15;;
56537;SDS011;42435;53.292;6.000;2023-03-16T10:24:40;8.70;;;5.80;;
56537;SDS011;42435;53.292;6.000;2023-03-16T10:27:21;8.90;;;4.60;;
56537;SDS011;42435;53.292;6.000;2023-03-16T10:29:52;8.07;;;4.95;;
56537;SDS011;42435;53.292;6.000;2023-03-16T10:32:19;8.07;;;4.55;;
56537;SDS011;42435;53.292;6.000;2023-03-16T10:34:51;7.05;;;4.50;;
56537;SDS011;42435;53.292;6.000;2023-03-16T10:37:21;7.03;;;4.95;;
56537;SDS011;42435;53.292;6.000;2023-03-16T10:39:49;6.97;;;4.30;;
56537;SDS011;42435;53.292;6.000;2023-03-16T10:42:16;8.95;;;4.65;;
56537;SDS011;42435;53.292;6.000;2023-03-16T10:44:45;9.80;;;4.80;;
56537;SDS011;42435;53.292;6.000;2023-03-16T10:47:18;7.00;;;4.57;;
56537;SDS011;42435;53.292;6.000;2023-03-16T10:49:48;8.68;;;4.80;;
56537;SDS011;42435;53.292;6.000;2023-03-16T10:52:32;7.25;;;4.40;;
56537;SDS011;42435;53.292;6.000;2023-03-16T10:57:53;6.47;;;4.60;;
56537;SDS011;42435;53.292;6.000;2023-03-16T11:00:33;9.15;;;4.70;;
56537;SDS011;42435;53.292;6.000;2023-03-16T11:03:01;9.40;;;5.60;;
56537;SDS011;42435;53.292;6.000;2023-03-16T11:05:46;10.32;;;5.25;;
56537;SDS011;42435;53.292;6.000;2023-03-16T11:08:21;6.90;;;4.30;;
56537;SDS011;42435;53.292;6.000;2023-03-16T11:10:53;5.95;;;3.75;;
56537;SDS011;42435;53.292;6.000;2023-03-16T11:13:23;7.80;;;3.80;;
56537;SDS011;42435;53.292;6.000;2023-03-16T11:16:00;5.75;;;4.25;;
56537;SDS011;42435;53.292;6.000;2023-03-16T11:18:47;6.88;;;4.47;;
56537;SDS011;42435;53.292;6.000;2023-03-16T11:21:24;7.03;;;4.03;;
56537;SDS011;42435;53.292;6.000;2023-03-16T11:24:02;7.68;;;4.00;;
56537;SDS011;42435;53.292;6.000;2023-03-16T11:26:34;9.13;;;5.57;;
56537;SDS011;42435;53.292;6.000;2023-03-16T11:29:17;6.78;;;4.10;;
56537;SDS011;42435;53.292;6.000;2023-03-16T11:34:29;6.40;;;3.90;;
56537;SDS011;42435;53.292;6.000;2023-03-16T11:36:56;8.00;;;3.72;;
56537;SDS011;42435;53.292;6.000;2023-03-16T11:45:34;6.80;;;4.45;;
56537;SDS011;42435;53.292;6.000;2023-03-16T11:49:12;9.15;;;4.18;;
56537;SDS011;42435;53.292;6.000;2023-03-16T11:57:03;7.82;;;4.40;;
56537;SDS011;42435;53.292;6.000;2023-03-16T12:08:29;6.45;;;4.18;;
56537;SDS011;42435;53.292;6.000;2023-03-16T12:11:02;6.90;;;4.00;;
56537;SDS011;42435;53.292;6.000;2023-03-16T12:13:49;7.40;;;4.50;;
56537;SDS011;42435;53.292;6.000;2023-03-16T12:16:39;5.82;;;3.78;;
56537;SDS011;42435;53.292;6.000;2023-03-16T12:19:15;7.43;;;4.00;;
56537;SDS011;42435;53.292;6.000;2023-03-16T12:21:47;7.38;;;4.18;;
56537;SDS011;42435;53.292;6.000;2023-03-16T12:24:18;6.72;;;4.70;;
56537;SDS011;42435;53.292;6.000;2023-03-16T12:26:48;6.78;;;4.03;;
56537;SDS011;42435;53.292;6.000;2023-03-16T12:29:28;9.18;;;5.13;;
56537;SDS011;42435;53.292;6.000;2023-03-16T12:37:29;8.50;;;4.72;;
56537;SDS011;42435;53.292;6.000;2023-03-16T12:43:01;7.05;;;4.75;;
56537;SDS011;42435;53.292;6.000;2023-03-16T12:45:41;7.78;;;4.35;;
56537;SDS011;42435;53.292;6.000;2023-03-16T12:48:14;7.05;;;4.15;;
56537;SDS011;42435;53.292;6.000;2023-03-16T12:50:47;6.90;;;4.40;;
56537;SDS011;42435;53.292;6.000;2023-03-16T12:56:11;7.15;;;6.03;;
56537;SDS011;42435;53.292;6.000;2023-03-16T12:58:49;10.55;;;5.85;;
56537;SDS011;42435;53.292;6.000;2023-03-16T13:01:16;6.97;;;3.97;;
56537;SDS011;42435;53.292;6.000;2023-03-16T13:03:48;6.88;;;4.85;;
56537;SDS011;42435;53.292;6.000;2023-03-16T13:06:16;7.53;;;4.22;;
56537;SDS011;42435;53.292;6.000;2023-03-16T13:08:46;6.38;;;4.25;;
56537;SDS011;42435;53.292;6.000;2023-03-16T13:11:16;6.35;;;4.28;;
56537;SDS011;42435;53.292;6.000;2023-03-16T13:14:03;8.27;;;6.20;;
56537;SDS011;42435;53.292;6.000;2023-03-16T13:16:34;6.22;;;4.10;;
56537;SDS011;42435;53.292;6.000;2023-03-16T13:19:15;6.93;;;4.30;;
56537;SDS011;42435;53.292;6.000;2023-03-16T13:21:47;5.25;;;4.00;;
56537;SDS011;42435;53.292;6.000;2023-03-16T13:24:27;7.60;;;4.13;;
56537;SDS011;42435;53.292;6.000;2023-03-16T13:27:02;9.75;;;4.28;;
56537;SDS011;42435;53.292;6.000;2023-03-16T13:29:53;6.00;;;4.22;;
56537;SDS011;42435;53.292;6.000;2023-03-16T13:32:21;7.03;;;4.40;;
56537;SDS011;42435;53.292;6.000;2023-03-16T13:34:49;12.88;;;10.48;;
56537;SDS011;42435;53.292;6.000;2023-03-16T13:37:17;7.45;;;5.75;;
56537;SDS011;42435;53.292;6.000;2023-03-16T13:39:52;7.15;;;4.57;;
56537;SDS011;42435;53.292;6.000;2023-03-16T13:42:20;8.20;;;4.45;;
56537;SDS011;42435;53.292;6.000;2023-03-16T13:44:50;7.97;;;5.63;;
56537;SDS011;42435;53.292;6.000;2023-03-16T13:47:17;6.55;;;4.30;;
56537;SDS011;42435;53.292;6.000;2023-03-16T13:49:45;7.88;;;4.88;;
56537;SDS011;42435;53.292;6.000;2023-03-16T13:52:28;6.35;;;4.30;;
56537;SDS011;42435;53.292;6.000;2023-03-16T13:54:57;6.40;;;4.82;;
56537;SDS011;42435;53.292;6.000;2023-03-16T13:57:26;6.38;;;4.35;;
56537;SDS011;42435;53.292;6.000;2023-03-16T14:00:28;8.25;;;4.20;;
56537;SDS011;42435;53.292;6.000;2023-03-16T14:02:52;6.30;;;4.88;;
56537;SDS011;42435;53.292;6.000;2023-03-16T14:05:24;7.93;;;4.43;;
56537;SDS011;42435;53.292;6.000;2023-03-16T14:07:52;5.15;;;3.85;;
56537;SDS011;42435;53.292;6.000;2023-03-16T14:10:19;7.40;;;4.40;;
56537;SDS011;42435;53.292;6.000;2023-03-16T14:12:50;7.80;;;3.75;;
56537;SDS011;42435;53.292;6.000;2023-03-16T14:15:17;8.15;;;5.13;;
56537;SDS011;42435;53.292;6.000;2023-03-16T14:17:44;6.45;;;4.57;;
56537;SDS011;42435;53.292;6.000;2023-03-16T14:20:15;5.60;;;4.10;;
56537;SDS011;42435;53.292;6.000;2023-03-16T14:22:50;6.47;;;3.80;;
56537;SDS011;42435;53.292;6.000;2023-03-16T14:25:18;5.75;;;4.22;;
56537;SDS011;42435;53.292;6.000;2023-03-16T14:27:48;7.75;;;4.47;;
56537;SDS011;42435;53.292;6.000;2023-03-16T14:30:26;7.03;;;4.50;;
56537;SDS011;42435;53.292;6.000;2023-03-16T14:32:58;7.50;;;4.97;;
56537;SDS011;42435;53.292;6.000;2023-03-16T14:35:29;7.82;;;4.75;;
56537;SDS011;42435;53.292;6.000;2023-03-16T14:38:21;5.68;;;4.32;;
56537;SDS011;42435;53.292;6.000;2023-03-16T14:40:56;8.75;;;4.35;;
56537;SDS011;42435;53.292;6.000;2023-03-16T14:43:33;7.30;;;4.63;;
56537;SDS011;42435;53.292;6.000;2023-03-16T14:46:02;7.57;;;4.68;;
56537;SDS011;42435;53.292;6.000;2023-03-16T14:48:30;6.00;;;4.10;;
56537;SDS011;42435;53.292;6.000;2023-03-16T14:50:58;8.13;;;4.68;;
56537;SDS011;42435;53.292;6.000;2023-03-16T14:53:26;6.57;;;4.20;;
56537;SDS011;42435;53.292;6.000;2023-03-16T14:55:53;8.10;;;4.43;;
56537;SDS011;42435;53.292;6.000;2023-03-16T14:58:20;7.28;;;5.22;;
56537;SDS011;42435;53.292;6.000;2023-03-16T15:00:46;8.02;;;5.05;;
56537;SDS011;42435;53.292;6.000;2023-03-16T15:03:14;6.40;;;5.20;;
56537;SDS011;42435;53.292;6.000;2023-03-16T15:05:43;9.10;;;4.63;;
56537;SDS011;42435;53.292;6.000;2023-03-16T15:08:13;7.60;;;4.63;;
56537;SDS011;42435;53.292;6.000;2023-03-16T15:10:51;9.77;;;5.40;;
56537;SDS011;42435;53.292;6.000;2023-03-16T15:13:20;8.85;;;5.78;;
56537;SDS011;42435;53.292;6.000;2023-03-16T15:16:17;8.30;;;4.93;;
56537;SDS011;42435;53.292;6.000;2023-03-16T15:18:43;7.43;;;5.20;;
56537;SDS011;42435;53.292;6.000;2023-03-16T15:21:10;6.50;;;4.57;;
56537;SDS011;42435;53.292;6.000;2023-03-16T15:23:41;8.57;;;5.75;;
56537;SDS011;42435;53.292;6.000;2023-03-16T15:26:12;7.88;;;5.85;;
56537;SDS011;42435;53.292;6.000;2023-03-16T15:28:39;10.13;;;5.43;;
56537;SDS011;42435;53.292;6.000;2023-03-16T15:31:04;6.95;;;5.82;;
56537;SDS011;42435;53.292;6.000;2023-03-16T15:33:31;8.32;;;5.30;;
56537;SDS011;42435;53.292;6.000;2023-03-16T15:35:58;7.60;;;5.72;;
56537;SDS011;42435;53.292;6.000;2023-03-16T15:38:33;8.77;;;4.40;;
56537;SDS011;42435;53.292;6.000;2023-03-16T15:41:07;7.00;;;4.90;;
56537;SDS011;42435;53.292;6.000;2023-03-16T15:43:34;6.70;;;4.85;;
56537;SDS011;42435;53.292;6.000;2023-03-16T15:46:01;7.05;;;5.30;;